Time;durP1;ratioP1;P1;durP2;ratioP2;P2;SDS_P1;SDS_P2;PMS_P1;PMS_P2;Temp;Humidity;BMP_temperature;BMP_pressure;BME280_temperature;BME280_humidity;BME280_pressure;Samples;Min_cycle;Max_cycle;Signal;HPM_P1;HPM_P2
2023/09/29 00:00:24;;;;;;;1.45;0.60;;;;;;;;;;1027229;28;20129;-70
2023/09/29 00:00:55;;;;;;;0.40;0.40;;;;;;;;;;1028137;28;20022;-70
2023/09/29 00:01:26;;;;;;;0.25;0.20;;;;;;;;;;1026327;28;20121;-70
2023/09/29 00:01:56;;;;;;;3.10;0.90;;;;;;;;;;1026540;28;20466;-70
2023/09/29 00:02:26;;;;;;;4.00;2.65;;;;;;;;;;1026629;28;20027;-70
2023/09/29 00:02:57;;;;;;;1.02;1.02;;;;;;;;;;1026704;28;20517;-70
2023/09/29 00:03:28;;;;;;;0.98;0.98;;;;;;;;;;1024449;29;20023;-70
2023/09/29 00:03:59;;;;;;;11.75;3.03;;;;;;;;;;1024800;29;20545;-70
2023/09/29 00:04:30;;;;;;;0.70;0.68;;;;;;;;;;1025039;28;20019;-70
2023/09/29 00:05:01;;;;;;;1.35;1.13;;;;;;;;;;1026449;28;20458;-70
2023/09/29 00:05:31;;;;;;;2.45;2.08;;;;;;;;;;1026401;28;20038;-70
2023/09/29 00:06:03;;;;;;;0.88;0.88;;;;;;;;;;1027099;28;20454;-70
2023/09/29 00:06:34;;;;;;;0.10;0.10;;;;;;;;;;1027304;28;20030;-70
2023/09/29 00:07:07;;;;;;;3.85;1.40;;;;;;;;;;1027086;28;20469;-70
2023/09/29 00:07:37;;;;;;;0.45;0.43;;;;;;;;;;1026796;28;20030;-70
2023/09/29 00:08:09;;;;;;;1.65;0.80;;;;;;;;;;1026783;28;20071;-70
2023/09/29 00:08:39;;;;;;;3.50;0.85;;;;;;;;;;1028112;28;20046;-70
2023/09/29 00:09:12;;;;;;;2.30;1.80;;;;;;;;;;1025813;28;20027;-70
2023/09/29 00:09:43;;;;;;;2.28;2.17;;;;;;;;;;1025756;28;20441;-70
2023/09/29 00:10:15;;;;;;;0.80;0.50;;;;;;;;;;1021639;28;20032;-70
2023/09/29 00:10:46;;;;;;;0.40;0.40;;;;;;;;;;1024265;29;20070;-70
2023/09/29 00:11:17;;;;;;;0.38;0.38;;;;;;;;;;1026220;28;20027;-70
2023/09/29 00:11:48;;;;;;;2.83;1.02;;;;;;;;;;1026207;28;20468;-70
2023/09/29 00:12:18;;;;;;;3.75;1.90;;;;;;;;;;1026265;28;20035;-70
2023/09/29 00:12:49;;;;;;;2.10;0.90;;;;;;;;;;1026532;28;20030;-70
2023/09/29 00:13:20;;;;;;;0.82;0.82;;;;;;;;;;1027362;28;20027;-70
2023/09/29 00:13:50;;;;;;;5.78;1.75;;;;;;;;;;1026706;28;20030;-70
2023/09/29 00:14:21;;;;;;;0.00;0.00;;;;;;;;;;1025620;28;20027;-70
2023/09/29 00:14:52;;;;;;;0.93;0.88;;;;;;;;;;1025733;28;20035;-70
2023/09/29 00:15:22;;;;;;;1.75;1.10;;;;;;;;;;1026683;28;20030;-70
2023/09/29 00:15:53;;;;;;;38.22;2.50;;;;;;;;;;1026304;28;20398;-70
2023/09/29 00:16:23;;;;;;;0.63;0.63;;;;;;;;;;1026242;28;20078;-69
2023/09/29 00:16:54;;;;;;;0.65;0.43;;;;;;;;;;1026475;28;20372;-69
2023/09/29 00:17:24;;;;;;;1.52;1.08;;;;;;;;;;1026513;28;20029;-69
2023/09/29 00:17:54;;;;;;;0.60;0.60;;;;;;;;;;1027428;28;20026;-69
2023/09/29 00:18:25;;;;;;;1.45;1.35;;;;;;;;;;1026816;28;20089;-69
2023/09/29 00:18:56;;;;;;;1.65;1.02;;;;;;;;;;1026550;28;20023;-69
2023/09/29 00:19:26;;;;;;;0.65;0.65;;;;;;;;;;1024148;29;20029;-69
2023/09/29 00:19:57;;;;;;;2.33;2.13;;;;;;;;;;1024524;29;20067;-69
2023/09/29 00:20:29;;;;;;;1.40;1.33;;;;;;;;;;1022933;29;20279;-70
2023/09/29 00:21:00;;;;;;;3.33;0.98;;;;;;;;;;1026871;28;20038;-70
2023/09/29 00:21:30;;;;;;;0.68;0.68;;;;;;;;;;1026738;28;20027;-70
2023/09/29 00:22:01;;;;;;;0.40;0.40;;;;;;;;;;1026729;28;20019;-70
2023/09/29 00:22:31;;;;;;;2.38;0.98;;;;;;;;;;1026932;28;20031;-70
2023/09/29 00:23:02;;;;;;;4.90;2.50;;;;;;;;;;1026666;28;20019;-70
2023/09/29 00:23:32;;;;;;;0.20;0.20;;;;;;;;;;1026504;28;20478;-70
2023/09/29 00:24:04;;;;;;;2.25;2.05;;;;;;;;;;1027244;28;20062;-70
2023/09/29 00:24:34;;;;;;;1.77;1.63;;;;;;;;;;1026213;28;20091;-70
2023/09/29 00:25:08;;;;;;;0.10;0.10;;;;;;;;;;1027369;28;20503;-71
2023/09/29 00:25:38;;;;;;;1.85;1.75;;;;;;;;;;1026130;28;20031;-71
2023/09/29 00:26:09;;;;;;;0.50;0.50;;;;;;;;;;1027468;28;20465;-70
2023/09/29 00:26:40;;;;;;;1.67;1.58;;;;;;;;;;1026338;28;20121;-70
2023/09/29 00:27:11;;;;;;;1.55;1.45;;;;;;;;;;1026253;28;20143;-70
2023/09/29 00:27:41;;;;;;;0.98;0.68;;;;;;;;;;1024578;28;20031;-70
2023/09/29 00:28:12;;;;;;;2.83;2.10;;;;;;;;;;1024615;28;20023;-70
2023/09/29 00:28:42;;;;;;;2.30;1.85;;;;;;;;;;1024545;29;20050;-70
2023/09/29 00:29:13;;;;;;;1.02;0.98;;;;;;;;;;1024142;28;20037;-70
2023/09/29 00:29:43;;;;;;;1.95;1.75;;;;;;;;;;1022701;29;20027;-70
2023/09/29 00:30:17;;;;;;;0.30;0.30;;;;;;;;;;1021795;29;20066;-70
2023/09/29 00:30:48;;;;;;;4.65;2.38;;;;;;;;;;1022750;29;20030;-70
2023/09/29 00:31:19;;;;;;;0.85;0.63;;;;;;;;;;1023368;29;20354;-70
2023/09/29 00:31:49;;;;;;;0.20;0.20;;;;;;;;;;1018968;29;21589;-70
2023/09/29 00:32:19;;;;;;;0.52;0.52;;;;;;;;;;1019111;29;20059;-70
2023/09/29 00:32:51;;;;;;;1.38;1.13;;;;;;;;;;1022766;29;20131;-70
2023/09/29 00:33:21;;;;;;;0.85;0.60;;;;;;;;;;1025065;29;20023;-70
2023/09/29 00:33:52;;;;;;;4.47;1.45;;;;;;;;;;1028959;28;20466;-70
2023/09/29 00:34:22;;;;;;;0.82;0.82;;;;;;;;;;1026251;28;20058;-70
2023/09/29 00:34:53;;;;;;;0.95;0.95;;;;;;;;;;1026361;28;20471;-70
2023/09/29 00:35:54;;;;;;;11.63;1.10;;;;;;;;;;1027150;28;20022;-70
2023/09/29 00:36:26;;;;;;;2.53;2.28;;;;;;;;;;1026099;28;20027;-70
2023/09/29 00:36:56;;;;;;;1.30;1.08;;;;;;;;;;1027372;28;20027;-70
2023/09/29 00:37:28;;;;;;;1.65;1.02;;;;;;;;;;1026421;28;20054;-70
2023/09/29 00:37:59;;;;;;;0.47;0.47;;;;;;;;;;1026678;28;20468;-70
2023/09/29 00:38:30;;;;;;;0.73;0.73;;;;;;;;;;1027343;28;20027;-70
2023/09/29 00:39:00;;;;;;;15.65;0.98;;;;;;;;;;1026350;28;20027;-70
2023/09/29 00:39:31;;;;;;;1.80;1.70;;;;;;;;;;1026926;28;20030;-70
2023/09/29 00:40:02;;;;;;;0.20;0.17;;;;;;;;;;1028859;28;20438;-70
2023/09/29 00:40:33;;;;;;;0.47;0.47;;;;;;;;;;1027446;28;20019;-70
2023/09/29 00:41:03;;;;;;;15.32;2.38;;;;;;;;;;1026816;28;20023;-70
2023/09/29 00:41:34;;;;;;;2.38;1.65;;;;;;;;;;1027019;28;20023;-70
2023/09/29 00:42:06;;;;;;;0.70;0.70;;;;;;;;;;1026032;28;20023;-70
2023/09/29 00:42:36;;;;;;;0.10;0.10;;;;;;;;;;1022121;28;20024;-70
2023/09/29 00:43:08;;;;;;;0.35;0.35;;;;;;;;;;1026028;28;20030;-70
2023/09/29 00:43:38;;;;;;;0.93;0.55;;;;;;;;;;1027375;28;20030;-70
2023/09/29 00:44:10;;;;;;;0.15;0.15;;;;;;;;;;1026204;28;20023;-70
2023/09/29 00:44:40;;;;;;;1.27;1.02;;;;;;;;;;1026361;28;20035;-70
2023/09/29 00:45:12;;;;;;;2.58;1.08;;;;;;;;;;1027366;28;20030;-70
2023/09/29 00:45:43;;;;;;;2.58;2.38;;;;;;;;;;1026385;28;20038;-70
2023/09/29 00:46:14;;;;;;;9.95;0.88;;;;;;;;;;1027530;28;20033;-70
2023/09/29 00:46:45;;;;;;;1.85;1.60;;;;;;;;;;1026835;28;20030;-70
2023/09/29 00:47:15;;;;;;;3.42;1.27;;;;;;;;;;1026835;28;20479;-70
2023/09/29 00:47:49;;;;;;;2.42;1.77;;;;;;;;;;1024290;29;20030;-70
2023/09/29 00:48:22;;;;;;;20.23;3.42;;;;;;;;;;1023605;29;20503;-70
2023/09/29 00:48:54;;;;;;;1.25;0.93;;;;;;;;;;1024437;29;20479;-70
2023/09/29 00:49:26;;;;;;;1.50;1.27;;;;;;;;;;1022757;28;20550;-70
2023/09/29 00:49:57;;;;;;;0.10;0.10;;;;;;;;;;1021547;29;20027;-70
2023/09/29 00:50:28;;;;;;;1.15;1.13;;;;;;;;;;1022288;28;20485;-70
2023/09/29 00:50:59;;;;;;;1.77;0.90;;;;;;;;;;1026052;28;20629;-70
2023/09/29 00:51:29;;;;;;;1.85;1.17;;;;;;;;;;1027417;28;20046;-70
2023/09/29 00:52:00;;;;;;;0.80;0.43;;;;;;;;;;1025299;28;20023;-70
2023/09/29 00:52:32;;;;;;;16.33;2.50;;;;;;;;;;1024307;28;20027;-69
2023/09/29 00:53:11;;;;;;;0.17;0.17;;;;;;;;;;1025834;28;20027;-71
2023/09/29 00:53:42;;;;;;;10.80;3.03;;;;;;;;;;1021102;29;20455;-71
2023/09/29 00:54:14;;;;;;;0.30;0.30;;;;;;;;;;1024308;28;20114;-70
2023/09/29 00:54:45;;;;;;;0.82;0.82;;;;;;;;;;1026095;28;20101;-70
2023/09/29 00:55:16;;;;;;;0.40;0.38;;;;;;;;;;1025075;28;20027;-70
2023/09/29 00:55:48;;;;;;;0.75;0.73;;;;;;;;;;1026346;28;20387;-70
2023/09/29 00:56:19;;;;;;;1.75;1.55;;;;;;;;;;1026662;28;20038;-69
2023/09/29 00:56:49;;;;;;;0.93;0.85;;;;;;;;;;1026593;28;20057;-70
2023/09/29 00:57:20;;;;;;;2.42;2.28;;;;;;;;;;1026969;28;20104;-69
2023/09/29 00:57:51;;;;;;;0.85;0.85;;;;;;;;;;1025216;28;20023;-69
2023/09/29 00:58:21;;;;;;;0.47;0.47;;;;;;;;;;1026036;28;20043;-70
2023/09/29 00:58:55;;;;;;;0.55;0.55;;;;;;;;;;1024846;28;20078;-71
2023/09/29 00:59:26;;;;;;;3.35;1.40;;;;;;;;;;1025130;28;20521;-70
2023/09/29 00:59:57;;;;;;;8.48;1.17;;;;;;;;;;1023475;28;20115;-70
2023/09/29 01:01:00;;;;;;;6.80;1.20;;;;;;;;;;1022185;29;20146;-70
2023/09/29 01:01:31;;;;;;;0.88;0.82;;;;;;;;;;1022023;28;20368;-70
2023/09/29 01:02:03;;;;;;;3.40;0.98;;;;;;;;;;1026635;28;20110;-70
2023/09/29 01:02:34;;;;;;;0.70;0.70;;;;;;;;;;1025004;28;20038;-70
2023/09/29 01:03:06;;;;;;;4.32;1.77;;;;;;;;;;1024619;28;20031;-70
2023/09/29 01:03:37;;;;;;;3.08;1.35;;;;;;;;;;1025383;28;20541;-70
2023/09/29 01:04:10;;;;;;;0.80;0.68;;;;;;;;;;1025136;28;20521;-71
2023/09/29 01:04:41;;;;;;;1.88;1.15;;;;;;;;;;1025540;28;20121;-71
2023/09/29 01:05:12;;;;;;;2.55;1.80;;;;;;;;;;1025543;28;20743;-71
2023/09/29 01:05:45;;;;;;;1.25;0.63;;;;;;;;;;1021937;29;20096;-71
2023/09/29 01:06:16;;;;;;;1.85;1.75;;;;;;;;;;1022099;29;20027;-70
2023/09/29 01:06:48;;;;;;;3.22;1.17;;;;;;;;;;1022788;28;20506;-70
2023/09/29 01:07:20;;;;;;;1.52;1.42;;;;;;;;;;1024235;28;20027;-70
2023/09/29 01:07:51;;;;;;;1.17;1.13;;;;;;;;;;1023267;29;20075;-70
2023/09/29 01:08:22;;;;;;;1.10;1.00;;;;;;;;;;1023999;28;20395;-70
2023/09/29 01:08:53;;;;;;;1.02;0.95;;;;;;;;;;1025816;28;20051;-70
2023/09/29 01:09:24;;;;;;;1.20;1.13;;;;;;;;;;1025505;28;20031;-70
2023/09/29 01:09:54;;;;;;;0.17;0.13;;;;;;;;;;1026023;28;20058;-70
2023/09/29 01:10:26;;;;;;;7.70;1.67;;;;;;;;;;1024722;28;20098;-70
2023/09/29 01:10:57;;;;;;;2.70;1.60;;;;;;;;;;1023244;29;20480;-70
2023/09/29 01:11:27;;;;;;;1.23;0.93;;;;;;;;;;1023328;29;20030;-71
2023/09/29 01:12:00;;;;;;;3.97;1.30;;;;;;;;;;1021526;29;20035;-70
2023/09/29 01:12:30;;;;;;;2.85;1.38;;;;;;;;;;1021642;28;20419;-70
2023/09/29 01:13:01;;;;;;;1.05;1.05;;;;;;;;;;1025260;28;20122;-70
2023/09/29 01:13:32;;;;;;;1.30;1.20;;;;;;;;;;1025602;28;20113;-70
2023/09/29 01:14:04;;;;;;;1.10;1.08;;;;;;;;;;1025273;28;20050;-70
2023/09/29 01:14:34;;;;;;;0.82;0.82;;;;;;;;;;1024921;28;20041;-70
2023/09/29 01:15:05;;;;;;;0.40;0.40;;;;;;;;;;1026384;28;20122;-70
2023/09/29 01:15:36;;;;;;;3.08;2.10;;;;;;;;;;1024042;28;20483;-70
2023/09/29 01:16:08;;;;;;;1.00;1.00;;;;;;;;;;1020889;29;20027;-70
2023/09/29 01:16:40;;;;;;;0.95;0.93;;;;;;;;;;1021285;29;20100;-70
2023/09/29 01:17:10;;;;;;;0.82;0.82;;;;;;;;;;1022323;29;20093;-70
2023/09/29 01:17:45;;;;;;;0.38;0.38;;;;;;;;;;1021273;29;20027;-70
2023/09/29 01:18:17;;;;;;;12.70;1.27;;;;;;;;;;1016769;29;20032;-69
2023/09/29 01:18:48;;;;;;;0.52;0.52;;;;;;;;;;1021022;29;20072;-70
2023/09/29 01:19:20;;;;;;;0.57;0.57;;;;;;;;;;1016946;29;20136;-70
2023/09/29 01:19:51;;;;;;;0.10;0.10;;;;;;;;;;1020271;29;20410;-70
2023/09/29 01:20:29;;;;;;;0.25;0.25;;;;;;;;;;1022802;28;20031;-70
2023/09/29 01:20:59;;;;;;;1.98;1.02;;;;;;;;;;1022801;28;20509;-70
2023/09/29 01:21:30;;;;;;;5.05;1.80;;;;;;;;;;1024035;28;20093;-70
2023/09/29 01:22:01;;;;;;;0.55;0.55;;;;;;;;;;1020633;29;20623;-70
2023/09/29 01:22:33;;;;;;;1.17;0.85;;;;;;;;;;1021288;28;20760;-70
2023/09/29 01:23:04;;;;;;;0.90;0.75;;;;;;;;;;1021023;28;20034;-71
2023/09/29 01:23:35;;;;;;;1.35;1.00;;;;;;;;;;1016951;29;20103;-70
2023/09/29 01:24:08;;;;;;;2.08;1.45;;;;;;;;;;1017543;29;20092;-71
2023/09/29 01:24:39;;;;;;;0.30;0.30;;;;;;;;;;1013783;29;20380;-70
2023/09/29 01:25:10;;;;;;;2.05;1.05;;;;;;;;;;1013974;29;20036;-69
2023/09/29 01:25:41;;;;;;;5.65;2.75;;;;;;;;;;1016836;29;20024;-70
2023/09/29 01:26:11;;;;;;;3.10;0.68;;;;;;;;;;1015033;29;20032;-72
2023/09/29 01:26:42;;;;;;;0.95;0.95;;;;;;;;;;1023180;28;20051;-71
2023/09/29 01:27:13;;;;;;;1.90;1.02;;;;;;;;;;1023385;28;20075;-71
2023/09/29 01:27:45;;;;;;;0.10;0.10;;;;;;;;;;1020974;29;20569;-71
2023/09/29 01:28:17;;;;;;;0.55;0.55;;;;;;;;;;1017328;29;20016;-71
2023/09/29 01:28:50;;;;;;;1.23;1.17;;;;;;;;;;1018053;29;20030;-70
2023/09/29 01:29:20;;;;;;;0.98;0.52;;;;;;;;;;1016876;29;20120;-71
2023/09/29 01:29:52;;;;;;;1.48;1.13;;;;;;;;;;1021692;28;20114;-71
2023/09/29 01:30:24;;;;;;;2.47;2.28;;;;;;;;;;1022646;28;20066;-71
2023/09/29 01:30:55;;;;;;;0.38;0.38;;;;;;;;;;1024659;28;20098;-71
2023/09/29 01:31:25;;;;;;;0.98;0.85;;;;;;;;;;1024092;28;20605;-71
2023/09/29 01:31:56;;;;;;;1.67;1.58;;;;;;;;;;1020671;29;20537;-71
2023/09/29 01:32:28;;;;;;;0.98;0.88;;;;;;;;;;1018752;29;20031;-72
2023/09/29 01:33:00;;;;;;;3.40;1.50;;;;;;;;;;1015903;29;20086;-71
2023/09/29 01:33:30;;;;;;;1.30;1.20;;;;;;;;;;1016086;29;20445;-72
2023/09/29 01:34:04;;;;;;;0.28;0.28;;;;;;;;;;1019991;29;20651;-71
2023/09/29 01:34:36;;;;;;;0.43;0.43;;;;;;;;;;1019557;29;20112;-72
2023/09/29 01:35:08;;;;;;;2.42;2.22;;;;;;;;;;1018430;29;20470;-72
2023/09/29 01:35:39;;;;;;;0.35;0.35;;;;;;;;;;1022413;29;20026;-72
2023/09/29 01:36:11;;;;;;;0.50;0.50;;;;;;;;;;1022348;28;20023;-72
2023/09/29 01:36:42;;;;;;;7.50;0.50;;;;;;;;;;1022893;28;20039;-70
2023/09/29 01:37:13;;;;;;;0.40;0.30;;;;;;;;;;1019423;29;20027;-72
2023/09/29 01:37:46;;;;;;;0.35;0.35;;;;;;;;;;1021039;29;20035;-73
2023/09/29 01:38:17;;;;;;;3.83;1.25;;;;;;;;;;1019880;28;20070;-71
2023/09/29 01:38:47;;;;;;;1.40;0.95;;;;;;;;;;1018417;29;20182;-72
2023/09/29 01:39:17;;;;;;;1.55;0.80;;;;;;;;;;1020806;29;20026;-72
2023/09/29 01:39:48;;;;;;;1.95;0.95;;;;;;;;;;1019974;29;20475;-72
2023/09/29 01:40:22;;;;;;;4.30;0.88;;;;;;;;;;1020261;28;20465;-73
2023/09/29 01:40:53;;;;;;;0.98;0.82;;;;;;;;;;1025581;28;20087;-71
2023/09/29 01:41:24;;;;;;;9.05;1.83;;;;;;;;;;1023544;28;20590;-71
2023/09/29 01:41:56;;;;;;;6.10;2.10;;;;;;;;;;1025109;28;20031;-71
2023/09/29 01:42:27;;;;;;;0.73;0.73;;;;;;;;;;1025511;28;20035;-71
2023/09/29 01:42:57;;;;;;;0.20;0.20;;;;;;;;;;1023537;28;20954;-71
2023/09/29 01:43:28;;;;;;;1.17;1.00;;;;;;;;;;1021372;28;20028;-71
2023/09/29 01:44:00;;;;;;;2.05;1.55;;;;;;;;;;1022852;29;20411;-71
2023/09/29 01:44:30;;;;;;;2.03;1.85;;;;;;;;;;1022145;28;20038;-71
2023/09/29 01:45:07;;;;;;;6.43;0.82;;;;;;;;;;1017743;29;20529;-71
2023/09/29 01:45:38;;;;;;;1.10;0.77;;;;;;;;;;1021439;29;20067;-71
2023/09/29 01:46:18;;;;;;;0.95;0.63;;;;;;;;;;1021562;28;20082;-72
2023/09/29 01:46:49;;;;;;;0.88;0.40;;;;;;;;;;1024723;28;20035;-72
2023/09/29 01:47:21;;;;;;;1.35;1.25;;;;;;;;;;1025170;28;20058;-72
2023/09/29 01:47:54;;;;;;;1.42;0.65;;;;;;;;;;1020503;29;20066;-72
2023/09/29 01:48:25;;;;;;;2.28;2.08;;;;;;;;;;1021798;29;20042;-72
2023/09/29 01:48:56;;;;;;;0.10;0.10;;;;;;;;;;1022589;28;20033;-72
2023/09/29 01:49:27;;;;;;;0.47;0.47;;;;;;;;;;1022325;28;20565;-72
2023/09/29 01:49:59;;;;;;;0.10;0.10;;;;;;;;;;1024709;28;20031;-72
2023/09/29 01:50:32;;;;;;;0.55;0.55;;;;;;;;;;1020620;29;20032;-72
2023/09/29 01:51:03;;;;;;;1.63;1.33;;;;;;;;;;1021517;29;20514;-72
2023/09/29 01:51:34;;;;;;;0.68;0.68;;;;;;;;;;1021678;28;20031;-71
2023/09/29 01:52:05;;;;;;;2.40;2.20;;;;;;;;;;1025020;28;20062;-71
2023/09/29 01:52:35;;;;;;;3.55;3.03;;;;;;;;;;1024985;28;20023;-72
2023/09/29 01:53:07;;;;;;;1.35;0.80;;;;;;;;;;1026393;28;20042;-72
2023/09/29 01:53:38;;;;;;;0.75;0.75;;;;;;;;;;1028483;28;20024;-71
2023/09/29 01:54:08;;;;;;;0.20;0.20;;;;;;;;;;1027277;28;20019;-71
2023/09/29 01:54:39;;;;;;;0.20;0.20;;;;;;;;;;1024907;28;20377;-71
2023/09/29 01:55:14;;;;;;;2.08;1.92;;;;;;;;;;1016878;29;20060;-71
2023/09/29 01:55:44;;;;;;;1.73;1.00;;;;;;;;;;1016203;29;20024;-72
2023/09/29 01:56:16;;;;;;;0.32;0.32;;;;;;;;;;1017170;29;20115;-72
2023/09/29 01:56:47;;;;;;;1.25;1.15;;;;;;;;;;1020465;28;20441;-72
2023/09/29 01:57:18;;;;;;;5.05;1.85;;;;;;;;;;1028423;28;20100;-73
2023/09/29 01:57:49;;;;;;;0.68;0.63;;;;;;;;;;1026366;28;20386;-72
2023/09/29 01:58:20;;;;;;;1.38;1.27;;;;;;;;;;1027564;28;20034;-72
2023/09/29 01:58:51;;;;;;;1.20;1.08;;;;;;;;;;1027137;28;20101;-73
2023/09/29 01:59:21;;;;;;;0.25;0.25;;;;;;;;;;1026148;28;20003;-72
2023/09/29 01:59:54;;;;;;;0.52;0.52;;;;;;;;;;1025258;28;20628;-72
2023/09/29 02:00:24;;;;;;;2.28;2.08;;;;;;;;;;1022179;29;20071;-72
2023/09/29 02:00:55;;;;;;;0.05;0.05;;;;;;;;;;1021718;28;20078;-72
2023/09/29 02:01:25;;;;;;;3.75;3.35;;;;;;;;;;1019881;29;20027;-72
2023/09/29 02:01:56;;;;;;;4.03;2.65;;;;;;;;;;1022219;29;20031;-72
2023/09/29 02:02:27;;;;;;;1.10;1.08;;;;;;;;;;1025068;28;20030;-71
2023/09/29 02:03:00;;;;;;;0.75;0.75;;;;;;;;;;1024395;28;20026;-70
2023/09/29 02:03:31;;;;;;;0.43;0.43;;;;;;;;;;1025516;28;20081;-72
2023/09/29 02:04:01;;;;;;;4.63;1.75;;;;;;;;;;1024456;28;20498;-72
2023/09/29 02:04:32;;;;;;;0.40;0.40;;;;;;;;;;1022018;29;20122;-72
2023/09/29 02:05:03;;;;;;;1.35;0.35;;;;;;;;;;1023023;29;20035;-72
2023/09/29 02:05:34;;;;;;;1.50;1.40;;;;;;;;;;1023102;29;20517;-72
2023/09/29 02:06:05;;;;;;;1.40;1.23;;;;;;;;;;1021671;28;20543;-72
2023/09/29 02:06:37;;;;;;;8.05;0.75;;;;;;;;;;1025931;28;20046;-71
2023/09/29 02:07:09;;;;;;;2.42;2.17;;;;;;;;;;1021978;28;20737;-72
2023/09/29 02:07:39;;;;;;;0.30;0.30;;;;;;;;;;1022234;28;20050;-73
2023/09/29 02:08:10;;;;;;;5.32;3.10;;;;;;;;;;1022618;28;20536;-72
2023/09/29 02:08:41;;;;;;;0.75;0.75;;;;;;;;;;1023228;28;20431;-71
2023/09/29 02:09:12;;;;;;;0.10;0.10;;;;;;;;;;1023863;28;20031;-70
2023/09/29 02:09:43;;;;;;;2.42;1.17;;;;;;;;;;1025748;28;20042;-72
2023/09/29 02:10:19;;;;;;;0.60;0.60;;;;;;;;;;1027282;28;20023;-73
2023/09/29 02:10:50;;;;;;;2.33;1.92;;;;;;;;;;1024933;28;20027;-72
2023/09/29 02:11:21;;;;;;;2.45;0.70;;;;;;;;;;1025214;28;20081;-72
2023/09/29 02:11:53;;;;;;;0.68;0.68;;;;;;;;;;1023640;28;20051;-72
2023/09/29 02:12:24;;;;;;;1.00;0.43;;;;;;;;;;1023850;28;20030;-71
2023/09/29 02:12:55;;;;;;;0.25;0.25;;;;;;;;;;1024546;28;20026;-73
2023/09/29 02:13:26;;;;;;;0.17;0.17;;;;;;;;;;1022070;28;20030;-72
2023/09/29 02:13:57;;;;;;;0.43;0.43;;;;;;;;;;1018467;29;20019;-73
2023/09/29 02:14:29;;;;;;;0.52;0.43;;;;;;;;;;1017932;28;20134;-72
2023/09/29 02:15:00;;;;;;;2.40;2.13;;;;;;;;;;1018360;29;20039;-70
2023/09/29 02:15:35;;;;;;;1.27;1.13;;;;;;;;;;1020091;28;20034;-71
2023/09/29 02:16:10;;;;;;;1.35;1.25;;;;;;;;;;1022295;28;20020;-71
2023/09/29 02:16:41;;;;;;;1.27;0.90;;;;;;;;;;1017850;29;20034;-72
2023/09/29 02:17:11;;;;;;;4.57;1.73;;;;;;;;;;1016152;29;20709;-72
2023/09/29 02:17:43;;;;;;;0.57;0.40;;;;;;;;;;1020083;29;20031;-73
2023/09/29 02:18:15;;;;;;;3.03;0.43;;;;;;;;;;1016955;29;20348;-72
2023/09/29 02:18:46;;;;;;;1.33;1.23;;;;;;;;;;1021531;28;20023;-73
2023/09/29 02:19:17;;;;;;;0.60;0.60;;;;;;;;;;1021978;28;20034;-74
2023/09/29 02:19:47;;;;;;;1.75;0.60;;;;;;;;;;1022016;28;20027;-74
2023/09/29 02:20:20;;;;;;;0.52;0.52;;;;;;;;;;1021122;28;20137;-72
2023/09/29 02:20:51;;;;;;;0.10;0.10;;;;;;;;;;1023970;28;20105;-73
2023/09/29 02:21:22;;;;;;;0.00;0.00;;;;;;;;;;1024903;28;20026;-74
2023/09/29 02:21:53;;;;;;;0.03;0.03;;;;;;;;;;1024745;28;20022;-72
2023/09/29 02:22:23;;;;;;;2.72;0.60;;;;;;;;;;1020578;28;20027;-73
2023/09/29 02:22:55;;;;;;;5.68;1.55;;;;;;;;;;1022409;28;20026;-74
2023/09/29 02:23:25;;;;;;;0.28;0.28;;;;;;;;;;1022816;28;20529;-74
2023/09/29 02:23:56;;;;;;;0.93;0.93;;;;;;;;;;1023025;28;20038;-74
2023/09/29 02:24:27;;;;;;;8.10;1.65;;;;;;;;;;1016052;29;20494;-73
2023/09/29 02:25:06;;;;;;;0.85;0.57;;;;;;;;;;1015396;29;20682;-73
2023/09/29 02:25:37;;;;;;;0.50;0.22;;;;;;;;;;1020053;29;20031;-74
2023/09/29 02:26:08;;;;;;;0.10;0.10;;;;;;;;;;1020478;28;20035;-72
2023/09/29 02:26:41;;;;;;;4.63;1.73;;;;;;;;;;1017764;29;20472;-73
2023/09/29 02:27:12;;;;;;;2.65;1.23;;;;;;;;;;1021050;28;20027;-74
2023/09/29 02:27:43;;;;;;;2.90;2.35;;;;;;;;;;1020544;29;20019;-74
2023/09/29 02:28:14;;;;;;;1.27;0.75;;;;;;;;;;1016150;29;20083;-72
2023/09/29 02:28:46;;;;;;;0.40;0.38;;;;;;;;;;1016457;29;20427;-73
2023/09/29 02:29:16;;;;;;;1.30;0.85;;;;;;;;;;1016763;29;20924;-72
2023/09/29 02:29:47;;;;;;;4.57;2.63;;;;;;;;;;1021202;28;20129;-72
2023/09/29 02:30:18;;;;;;;0.43;0.40;;;;;;;;;;1021937;28;20018;-71
2023/09/29 02:30:49;;;;;;;0.40;0.40;;;;;;;;;;1020138;28;20026;-73
2023/09/29 02:31:19;;;;;;;2.17;1.45;;;;;;;;;;1019637;28;20055;-73
2023/09/29 02:31:50;;;;;;;2.40;1.13;;;;;;;;;;1020761;28;20456;-73
2023/09/29 02:32:22;;;;;;;0.52;0.52;;;;;;;;;;1022951;28;20034;-73
2023/09/29 02:32:52;;;;;;;0.75;0.75;;;;;;;;;;1024307;28;20030;-73
2023/09/29 02:33:24;;;;;;;0.20;0.20;;;;;;;;;;1025754;28;21180;-73
2023/09/29 02:33:54;;;;;;;1.08;1.02;;;;;;;;;;1022726;28;20031;-73
2023/09/29 02:34:25;;;;;;;1.60;1.10;;;;;;;;;;1020695;28;20069;-74
2023/09/29 02:34:55;;;;;;;0.32;0.32;;;;;;;;;;1020432;29;20125;-74
2023/09/29 02:35:26;;;;;;;1.15;1.08;;;;;;;;;;1018474;28;20574;-73
2023/09/29 02:35:57;;;;;;;0.85;0.45;;;;;;;;;;1024182;28;20131;-73
2023/09/29 02:36:28;;;;;;;1.70;1.58;;;;;;;;;;1014549;29;20152;-74
2023/09/29 02:36:59;;;;;;;0.63;0.63;;;;;;;;;;1015549;29;20040;-74
2023/09/29 02:37:30;;;;;;;1.33;1.25;;;;;;;;;;1013831;29;20066;-75
2023/09/29 02:38:01;;;;;;;0.55;0.55;;;;;;;;;;1016780;29;20032;-73
2023/09/29 02:38:32;;;;;;;0.68;0.68;;;;;;;;;;1014431;29;20065;-73
2023/09/29 02:39:04;;;;;;;1.08;0.68;;;;;;;;;;1017598;29;20038;-74
2023/09/29 02:39:34;;;;;;;0.13;0.13;;;;;;;;;;1021436;29;20080;-72
2023/09/29 02:40:11;;;;;;;0.63;0.63;;;;;;;;;;1016648;29;20023;-74
2023/09/29 02:40:42;;;;;;;1.20;1.13;;;;;;;;;;1021899;28;20065;-73
2023/09/29 02:41:13;;;;;;;13.45;1.15;;;;;;;;;;1021241;28;20141;-74
2023/09/29 02:41:44;;;;;;;0.13;0.13;;;;;;;;;;1025232;28;20054;-72
2023/09/29 02:42:17;;;;;;;0.00;0.00;;;;;;;;;;1024120;28;20062;-73
2023/09/29 02:42:48;;;;;;;0.38;0.35;;;;;;;;;;1023035;28;20467;-74
2023/09/29 02:43:19;;;;;;;4.00;1.75;;;;;;;;;;1024145;28;20019;-72
2023/09/29 02:43:49;;;;;;;1.23;1.13;;;;;;;;;;1022932;28;20035;-73
2023/09/29 02:44:20;;;;;;;20.23;0.70;;;;;;;;;;1023616;28;21312;-72
2023/09/29 02:44:51;;;;;;;0.65;0.65;;;;;;;;;;1022079;28;20423;-74
2023/09/29 02:45:23;;;;;;;1.15;1.08;;;;;;;;;;1023140;28;20030;-74
2023/09/29 02:45:53;;;;;;;0.40;0.40;;;;;;;;;;1023301;28;21305;-72
2023/09/29 02:46:26;;;;;;;0.80;0.80;;;;;;;;;;1019863;28;20031;-74
2023/09/29 02:46:58;;;;;;;4.55;2.67;;;;;;;;;;1022133;29;20051;-74
2023/09/29 02:47:30;;;;;;;0.63;0.63;;;;;;;;;;1017869;29;20067;-74
2023/09/29 02:48:02;;;;;;;0.95;0.82;;;;;;;;;;1014396;29;20091;-73
2023/09/29 02:48:33;;;;;;;4.78;2.67;;;;;;;;;;1019006;29;20098;-74
2023/09/29 02:49:04;;;;;;;1.27;0.88;;;;;;;;;;1020368;29;20450;-74
2023/09/29 02:49:35;;;;;;;0.65;0.50;;;;;;;;;;1019561;29;20020;-73
2023/09/29 02:50:07;;;;;;;3.45;1.05;;;;;;;;;;1022714;28;20033;-74
2023/09/29 02:50:38;;;;;;;1.02;0.70;;;;;;;;;;1021679;28;20245;-74
2023/09/29 02:51:15;;;;;;;1.05;0.65;;;;;;;;;;1019185;28;20482;-73
2023/09/29 02:51:46;;;;;;;0.38;0.25;;;;;;;;;;1023808;28;20033;-74
2023/09/29 02:52:17;;;;;;;0.35;0.35;;;;;;;;;;1022355;28;20049;-72
2023/09/29 02:52:48;;;;;;;2.50;2.03;;;;;;;;;;1016965;29;20361;-73
2023/09/29 02:53:19;;;;;;;1.67;1.55;;;;;;;;;;1015326;29;20204;-73
2023/09/29 02:53:51;;;;;;;1.05;0.88;;;;;;;;;;1016615;29;20040;-73
2023/09/29 02:54:22;;;;;;;0.57;0.57;;;;;;;;;;1018649;29;20028;-74
2023/09/29 02:54:59;;;;;;;0.52;0.40;;;;;;;;;;1018514;29;20066;-75
2023/09/29 02:55:29;;;;;;;1.38;0.68;;;;;;;;;;1016402;29;20028;-75
2023/09/29 02:56:00;;;;;;;0.75;0.68;;;;;;;;;;1016934;28;20015;-75
2023/09/29 02:56:31;;;;;;;1.25;1.15;;;;;;;;;;1019642;28;20482;-74
2023/09/29 02:57:01;;;;;;;0.38;0.38;;;;;;;;;;1018604;28;21096;-75
2023/09/29 02:57:32;;;;;;;1.88;1.77;;;;;;;;;;1022399;28;20016;-74
2023/09/29 02:58:03;;;;;;;1.02;0.80;;;;;;;;;;1023425;28;20057;-74
2023/09/29 02:58:34;;;;;;;2.65;0.73;;;;;;;;;;1019816;28;20427;-74
2023/09/29 02:59:04;;;;;;;1.25;1.15;;;;;;;;;;1021155;28;20024;-75
2023/09/29 02:59:37;;;;;;;0.57;0.57;;;;;;;;;;1019270;29;20676;-76
2023/09/29 03:00:15;;;;;;;0.10;0.10;;;;;;;;;;1016453;29;20060;-75
2023/09/29 03:00:47;;;;;;;0.17;0.17;;;;;;;;;;1013276;29;20873;-74
2023/09/29 03:01:18;;;;;;;1.10;1.02;;;;;;;;;;1012592;29;20029;-74
2023/09/29 03:01:51;;;;;;;0.38;0.38;;;;;;;;;;1015431;29;20524;-75
2023/09/29 03:02:22;;;;;;;0.10;0.10;;;;;;;;;;1016408;28;20475;-74
2023/09/29 03:02:53;;;;;;;0.30;0.30;;;;;;;;;;1018625;29;20028;-75
2023/09/29 03:03:26;;;;;;;0.00;0.00;;;;;;;;;;1017505;29;20039;-75
2023/09/29 03:03:58;;;;;;;0.30;0.30;;;;;;;;;;1019412;28;20083;-74
2023/09/29 03:04:29;;;;;;;0.50;0.50;;;;;;;;;;1023289;28;20050;-75
2023/09/29 03:05:00;;;;;;;0.82;0.82;;;;;;;;;;1023453;28;20023;-74
2023/09/29 03:05:32;;;;;;;0.55;0.55;;;;;;;;;;1023957;28;20030;-76
2023/09/29 03:06:06;;;;;;;0.15;0.15;;;;;;;;;;1020994;29;20035;-74
2023/09/29 03:06:47;;;;;;;1.73;0.55;;;;;;;;;;1019665;28;20035;-73
2023/09/29 03:07:18;;;;;;;0.90;0.90;;;;;;;;;;1018545;28;20069;-74
2023/09/29 03:07:49;;;;;;;0.75;0.75;;;;;;;;;;1022259;28;20890;-75
2023/09/29 03:08:20;;;;;;;1.63;1.52;;;;;;;;;;1020316;29;20106;-74
2023/09/29 03:08:58;;;;;;;0.75;0.45;;;;;;;;;;1022680;29;20046;-75
2023/09/29 03:09:29;;;;;;;0.90;0.85;;;;;;;;;;1019744;28;20310;-74